createdAt,value
2019-01-27T00:01:55.929Z,36.95
2019-01-27T00:04:24.064Z,37.83
2019-01-27T00:06:52.087Z,42.07
2019-01-27T00:09:21.633Z,40.97
2019-01-27T00:11:50.182Z,39.30
2019-01-27T00:14:18.952Z,41.77
2019-01-27T00:16:47.459Z,41.55
2019-01-27T00:19:16.626Z,39.53
2019-01-27T00:21:45.274Z,41.68
2019-01-27T00:24:15.758Z,41.13
2019-01-27T00:26:43.909Z,46.63
2019-01-27T00:29:12.165Z,40.83
2019-01-27T00:31:40.576Z,44.27
2019-01-27T00:34:08.781Z,43.98
2019-01-27T00:36:37.539Z,44.98
2019-01-27T00:39:08.287Z,49.20
2019-01-27T00:41:38.644Z,46.77
2019-01-27T00:44:06.747Z,45.58
2019-01-27T00:46:35.465Z,44.63
2019-01-27T00:49:03.604Z,47.13
2019-01-27T00:51:32.055Z,42.95
2019-01-27T00:54:00.202Z,44.00
2019-01-27T00:56:29.076Z,44.60
2019-01-27T00:58:58.171Z,44.73
2019-01-27T01:01:26.611Z,42.27
2019-01-27T01:03:54.855Z,43.30
2019-01-27T01:06:23.460Z,42.73
2019-01-27T01:08:51.908Z,44.63
2019-01-27T01:11:20.059Z,38.78
2019-01-27T01:13:48.184Z,43.83
2019-01-27T01:16:16.554Z,41.80
2019-01-27T01:18:44.827Z,36.85
2019-01-27T01:21:13.046Z,35.75
2019-01-27T01:23:41.140Z,35.65
2019-01-27T01:26:09.260Z,36.75
2019-01-27T01:28:38.151Z,34.58
2019-01-27T01:31:06.800Z,33.95
2019-01-27T01:33:35.136Z,34.05
2019-01-27T01:36:03.257Z,35.08
2019-01-27T01:38:31.837Z,32.25
2019-01-27T01:41:00.043Z,32.30
2019-01-27T01:43:28.894Z,31.90
2019-01-27T01:45:56.945Z,30.77
2019-01-27T01:48:25.279Z,31.77
2019-01-27T01:50:53.909Z,31.17
2019-01-27T01:53:22.561Z,29.57
2019-01-27T01:55:51.248Z,28.12
2019-01-27T01:58:19.328Z,27.05
2019-01-27T02:00:47.481Z,28.57
2019-01-27T02:03:16.520Z,29.95
2019-01-27T02:05:44.651Z,29.23
2019-01-27T02:08:12.751Z,25.30
2019-01-27T02:10:40.931Z,26.75
2019-01-27T02:13:10.764Z,25.77
2019-01-27T02:16:03.819Z,26.65
2019-01-27T02:18:33.081Z,27.32
2019-01-27T02:21:01.584Z,26.12
2019-01-27T02:23:30.223Z,23.00
2019-01-27T02:25:58.411Z,25.12
2019-01-27T02:28:26.632Z,23.23
2019-01-27T02:30:54.765Z,28.07
2019-01-27T02:33:22.884Z,23.15
2019-01-27T02:35:51.020Z,23.40
2019-01-27T02:38:19.501Z,22.87
2019-01-27T02:40:48.024Z,23.47
2019-01-27T02:43:16.196Z,22.45
2019-01-27T02:45:44.293Z,22.32
2019-01-27T02:48:12.504Z,22.37
2019-01-27T02:50:41.077Z,21.73
2019-01-27T02:53:09.188Z,18.80
2019-01-27T02:55:37.507Z,20.82
2019-01-27T02:58:05.743Z,20.80
2019-01-27T03:00:33.960Z,20.77
2019-01-27T03:03:02.068Z,22.42
2019-01-27T03:05:42.808Z,21.15
2019-01-27T03:08:11.525Z,22.15
2019-01-27T03:10:39.683Z,21.95
2019-01-27T03:13:08.132Z,20.43
2019-01-27T03:15:36.575Z,20.68
2019-01-27T03:18:04.832Z,20.95
2019-01-27T03:20:33.281Z,22.65
2019-01-27T03:23:01.441Z,23.00
2019-01-27T03:25:29.944Z,23.77
2019-01-27T03:27:58.086Z,22.60
2019-01-27T03:30:26.327Z,23.15
2019-01-27T03:32:54.909Z,22.43
2019-01-27T03:35:23.625Z,21.30
2019-01-27T03:37:52.606Z,21.15
2019-01-27T03:40:21.278Z,21.77
2019-01-27T03:42:49.819Z,23.42
2019-01-27T03:45:17.945Z,20.48
2019-01-27T03:47:46.048Z,21.60
2019-01-27T03:50:15.455Z,19.60
2019-01-27T03:52:44.163Z,19.82
2019-01-27T03:55:14.602Z,19.12
2019-01-27T03:57:43.119Z,19.23
2019-01-27T04:00:13.056Z,19.62
2019-01-27T04:02:41.501Z,18.10
2019-01-27T04:05:10.043Z,18.17
2019-01-27T04:07:39.944Z,19.50
2019-01-27T04:10:12.167Z,17.35
2019-01-27T04:12:40.512Z,16.90
2019-01-27T04:15:08.980Z,18.50
2019-01-27T04:17:37.048Z,17.02
2019-01-27T04:20:06.505Z,16.73
2019-01-27T04:22:34.945Z,16.80
2019-01-27T04:25:03.024Z,15.98
2019-01-27T04:27:31.909Z,16.90
2019-01-27T04:30:00.650Z,15.60
2019-01-27T04:32:28.724Z,15.80
2019-01-27T04:34:57.057Z,16.15
2019-01-27T04:37:25.183Z,15.32
2019-01-27T04:39:54.316Z,14.43
2019-01-27T04:42:23.191Z,14.13
2019-01-27T04:44:51.320Z,13.88
2019-01-27T04:47:19.864Z,14.45
2019-01-27T04:49:48.068Z,14.43
2019-01-27T04:52:16.277Z,15.18
2019-01-27T04:54:44.795Z,13.80
2019-01-27T04:57:13.277Z,14.53
2019-01-27T04:59:41.966Z,14.40
2019-01-27T05:02:10.443Z,12.90
2019-01-27T05:04:41.595Z,12.70
2019-01-27T05:07:09.846Z,12.93
2019-01-27T05:09:37.978Z,12.07
2019-01-27T05:12:06.579Z,13.00
2019-01-27T05:14:35.000Z,12.35
2019-01-27T05:17:04.181Z,11.93
2019-01-27T05:19:32.846Z,11.75
2019-01-27T05:22:01.559Z,11.50
2019-01-27T05:24:30.161Z,12.30
2019-01-27T05:26:58.275Z,11.40
2019-01-27T05:29:26.652Z,12.95
2019-01-27T05:31:54.760Z,10.85
2019-01-27T05:34:23.413Z,11.28
2019-01-27T05:36:52.096Z,11.15
2019-01-27T05:39:20.979Z,11.55
2019-01-27T05:41:49.105Z,11.75
2019-01-27T05:44:17.373Z,11.20
2019-01-27T05:46:45.774Z,10.80
2019-01-27T05:49:14.241Z,10.82
2019-01-27T05:51:43.115Z,10.30
2019-01-27T05:54:11.773Z,11.83
2019-01-27T05:56:40.664Z,11.08
2019-01-27T05:59:09.207Z,10.55
2019-01-27T06:01:39.544Z,10.20
2019-01-27T06:04:07.992Z,10.32
2019-01-27T06:06:36.396Z,10.40
2019-01-27T06:09:07.125Z,9.05
2019-01-27T06:11:35.856Z,10.70
2019-01-27T06:14:04.711Z,8.95
2019-01-27T06:16:34.888Z,9.68
2019-01-27T06:19:03.691Z,10.25
2019-01-27T06:21:32.182Z,8.60
2019-01-27T06:24:00.259Z,9.58
2019-01-27T06:26:28.453Z,9.30
2019-01-27T06:28:56.643Z,8.75
2019-01-27T06:31:25.827Z,9.68
2019-01-27T06:34:15.541Z,11.20
2019-01-27T06:36:44.123Z,9.63
2019-01-27T06:39:12.564Z,8.95
2019-01-27T06:41:40.784Z,10.15
2019-01-27T06:44:08.960Z,9.08
2019-01-27T06:46:37.888Z,9.10
2019-01-27T06:49:06.319Z,9.00
2019-01-27T06:51:34.776Z,8.80
2019-01-27T06:54:03.821Z,8.50
2019-01-27T06:56:32.680Z,8.40
2019-01-27T06:59:23.051Z,9.48
2019-01-27T07:01:59.719Z,8.40
2019-01-27T07:04:53.396Z,10.40
2019-01-27T07:07:39.350Z,8.85
2019-01-27T07:10:27.386Z,9.40
2019-01-27T07:13:07.792Z,8.85
2019-01-27T07:15:55.318Z,8.58
2019-01-27T07:18:41.413Z,9.63
2019-01-27T07:21:17.467Z,8.18
2019-01-27T07:24:03.401Z,8.93
2019-01-27T07:26:37.726Z,8.20
2019-01-27T07:29:23.669Z,8.60
2019-01-27T07:32:16.788Z,8.80
2019-01-27T07:34:57.750Z,9.13
2019-01-27T07:37:51.585Z,10.53
2019-01-27T07:40:27.290Z,9.08
2019-01-27T07:43:17.163Z,8.50
2019-01-27T07:45:50.147Z,9.00
2019-01-27T07:48:36.708Z,9.00
2019-01-27T07:51:30.199Z,9.15
2019-01-27T07:54:16.204Z,9.00
2019-01-27T07:56:59.375Z,10.40
2019-01-27T07:59:45.946Z,9.70
2019-01-27T08:02:33.231Z,9.60
2019-01-27T08:05:20.651Z,9.73
2019-01-27T08:08:17.249Z,9.08
2019-01-27T08:11:08.245Z,8.83
2019-01-27T08:13:59.352Z,8.80
2019-01-27T08:16:45.711Z,8.33
2019-01-27T08:19:29.403Z,9.20
2019-01-27T08:22:14.211Z,8.50
2019-01-27T08:25:10.343Z,9.43
2019-01-27T08:27:55.769Z,8.28
2019-01-27T08:30:32.885Z,8.70
2019-01-27T08:33:19.996Z,7.90
2019-01-27T08:36:06.101Z,8.35
2019-01-27T08:38:53.447Z,8.70
2019-01-27T08:41:52.864Z,9.85
2019-01-27T08:44:44.579Z,8.58
2019-01-27T08:47:12.696Z,8.43
2019-01-27T08:49:41.648Z,8.08
2019-01-27T08:52:09.796Z,8.27
2019-01-27T08:54:38.445Z,8.10
2019-01-27T08:57:07.401Z,8.23
2019-01-27T08:59:35.498Z,7.50
2019-01-27T09:02:28.535Z,8.10
2019-01-27T09:05:04.387Z,7.47
2019-01-27T09:07:50.306Z,8.28
2019-01-27T09:10:37.361Z,7.97
2019-01-27T09:13:37.027Z,7.22
2019-01-27T09:16:33.392Z,7.35
2019-01-27T09:19:34.213Z,7.50
2019-01-27T09:22:20.846Z,7.37
2019-01-27T09:25:07.067Z,7.05
2019-01-27T09:28:00.268Z,7.03
2019-01-27T09:31:05.899Z,7.10
2019-01-27T09:33:52.032Z,7.40
2019-01-27T09:36:48.838Z,7.22
2019-01-27T09:39:23.300Z,7.17
2019-01-27T09:42:19.491Z,7.10
2019-01-27T09:44:54.315Z,6.92
2019-01-27T09:47:46.817Z,6.97
2019-01-27T09:50:23.857Z,6.20
2019-01-27T09:53:01.489Z,6.40
2019-01-27T09:55:44.117Z,6.45
2019-01-27T09:58:46.712Z,6.60
2019-01-27T10:01:26.738Z,6.30
2019-01-27T10:04:13.707Z,6.00
2019-01-27T10:07:03.962Z,6.40
2019-01-27T10:09:43.176Z,6.75
2019-01-27T10:12:31.919Z,5.70
2019-01-27T10:15:25.366Z,5.42
2019-01-27T10:18:02.713Z,4.70
2019-01-27T10:20:42.340Z,29.70
2019-01-27T10:23:28.513Z,5.12
2019-01-27T10:26:12.435Z,8.00
2019-01-27T10:29:03.072Z,6.40
2019-01-27T10:31:50.296Z,5.62
2019-01-27T10:34:37.469Z,5.30
2019-01-27T10:37:16.340Z,5.80
2019-01-27T10:40:18.795Z,5.60
2019-01-27T10:42:52.906Z,5.93
2019-01-27T10:45:43.428Z,5.50
2019-01-27T10:48:30.464Z,5.30
2019-01-27T10:51:16.232Z,4.92
2019-01-27T10:54:01.941Z,5.30
2019-01-27T10:56:51.895Z,5.17
2019-01-27T10:59:37.610Z,4.97
2019-01-27T11:02:28.157Z,4.28
2019-01-27T11:05:27.390Z,4.60
2019-01-27T11:08:13.385Z,4.30
2019-01-27T11:11:00.569Z,5.50
2019-01-27T11:13:42.066Z,4.22
2019-01-27T11:16:33.157Z,4.03
2019-01-27T11:19:23.298Z,3.58
2019-01-27T11:22:10.551Z,4.33
2019-01-27T11:24:48.477Z,4.00
2019-01-27T11:27:44.630Z,4.13
2019-01-27T11:30:40.656Z,3.70
2019-01-27T11:33:24.680Z,6.27
2019-01-27T11:36:07.877Z,8.48
2019-01-27T11:39:11.883Z,6.00
2019-01-27T11:42:04.857Z,9.60
2019-01-27T11:44:52.896Z,5.95
2019-01-27T11:47:38.915Z,4.80
2019-01-27T11:50:27.673Z,3.83
2019-01-27T11:53:05.415Z,6.08
2019-01-27T11:55:34.154Z,4.05
2019-01-27T11:58:02.393Z,24.50
2019-01-27T12:00:35.534Z,6.67
2019-01-27T12:03:03.763Z,3.95
2019-01-27T12:05:32.017Z,4.70
2019-01-27T12:08:00.200Z,3.67
2019-01-27T12:10:28.791Z,3.27
2019-01-27T12:12:57.248Z,4.20
2019-01-27T12:15:25.322Z,5.80
2019-01-27T12:17:53.624Z,7.53
2019-01-27T12:20:21.771Z,7.85
2019-01-27T12:22:50.268Z,4.25
2019-01-27T12:25:18.923Z,5.53
2019-01-27T12:27:47.019Z,3.67
2019-01-27T12:30:17.165Z,3.83
2019-01-27T12:32:45.477Z,5.60
2019-01-27T12:35:15.826Z,3.65
2019-01-27T12:37:44.242Z,3.70
2019-01-27T12:40:14.299Z,4.35
2019-01-27T12:42:42.808Z,3.92
2019-01-27T12:45:11.779Z,3.80
2019-01-27T12:47:39.897Z,4.00
2019-01-27T12:50:08.809Z,3.80
2019-01-27T12:52:37.334Z,5.17
2019-01-27T12:55:05.621Z,2.70
2019-01-27T12:57:34.696Z,2.90
2019-01-27T13:00:02.809Z,3.50
2019-01-27T13:02:31.155Z,3.05
2019-01-27T13:04:59.615Z,3.72
2019-01-27T13:07:28.218Z,3.42
2019-01-27T13:09:56.431Z,3.10
2019-01-27T13:12:24.833Z,3.35
2019-01-27T13:14:53.096Z,3.80
2019-01-27T13:17:21.255Z,3.20
2019-01-27T13:19:53.778Z,3.40
2019-01-27T13:22:19.442Z,3.50
2019-01-27T13:24:47.643Z,3.53
2019-01-27T13:27:15.759Z,3.20
2019-01-27T13:29:44.272Z,3.80
2019-01-27T13:32:12.560Z,3.90
2019-01-27T13:34:40.618Z,3.20
2019-01-27T13:37:09.077Z,3.50
2019-01-27T13:39:37.310Z,4.80
2019-01-27T13:42:05.734Z,4.42
2019-01-27T13:44:33.887Z,3.80
2019-01-27T13:47:04.129Z,3.10
2019-01-27T13:49:32.163Z,4.00
2019-01-27T13:52:00.227Z,4.45
2019-01-27T13:54:28.395Z,3.27
2019-01-27T13:56:58.769Z,5.33
2019-01-27T13:59:28.012Z,3.03
2019-01-27T14:01:56.112Z,3.10
2019-01-27T14:04:24.585Z,3.00
2019-01-27T14:06:52.759Z,2.90
2019-01-27T14:09:21.695Z,4.60
2019-01-27T14:11:49.852Z,6.40
2019-01-27T14:14:18.451Z,3.55
2019-01-27T14:16:48.253Z,3.40
2019-01-27T14:19:17.119Z,3.27
2019-01-27T14:21:45.959Z,2.50
2019-01-27T14:24:14.365Z,2.50
2019-01-27T14:26:44.495Z,2.72
2019-01-27T14:29:12.537Z,2.20
2019-01-27T14:31:40.645Z,2.30
2019-01-27T14:34:08.749Z,3.40
2019-01-27T14:36:36.799Z,2.40
2019-01-27T14:39:07.272Z,2.20
2019-01-27T14:41:35.662Z,2.80
2019-01-27T14:44:03.740Z,3.85
2019-01-27T14:46:32.199Z,2.40
2019-01-27T14:49:00.653Z,2.70
2019-01-27T14:51:28.790Z,2.40
2019-01-27T14:53:57.278Z,2.10
2019-01-27T14:56:25.446Z,2.33
2019-01-27T14:58:53.643Z,2.70
2019-01-27T15:01:21.783Z,5.92
2019-01-27T15:03:49.989Z,2.50
2019-01-27T15:06:18.127Z,2.60
2019-01-27T15:08:46.548Z,2.17
2019-01-27T15:11:15.021Z,2.30
2019-01-27T15:13:43.301Z,3.70
2019-01-27T15:16:11.477Z,2.33
2019-01-27T15:18:39.567Z,3.00
2019-01-27T15:21:13.417Z,2.30
2019-01-27T15:23:41.771Z,3.08
2019-01-27T15:26:09.930Z,2.60
2019-01-27T15:28:39.806Z,2.85
2019-01-27T15:31:08.516Z,2.75
2019-01-27T15:33:37.096Z,2.30
2019-01-27T15:36:06.116Z,2.90
2019-01-27T15:38:35.675Z,2.80
2019-01-27T15:41:03.951Z,2.40
2019-01-27T15:43:32.502Z,2.50
2019-01-27T15:46:00.934Z,45.30
2019-01-27T15:48:29.099Z,4.45
2019-01-27T15:50:57.210Z,2.42
2019-01-27T15:53:27.190Z,3.00
2019-01-27T15:55:55.300Z,2.87
2019-01-27T15:58:23.437Z,2.50
2019-01-27T16:00:51.619Z,2.50
2019-01-27T16:03:20.040Z,3.02
2019-01-27T16:05:48.123Z,3.50
2019-01-27T16:08:16.899Z,3.00
2019-01-27T16:10:45.385Z,2.73
2019-01-27T16:13:13.520Z,2.40
2019-01-27T16:15:41.604Z,2.60
2019-01-27T16:18:09.855Z,2.70
2019-01-27T16:20:38.801Z,2.50
2019-01-27T16:23:20.799Z,2.80
2019-01-27T16:25:49.448Z,3.10
2019-01-27T16:28:17.622Z,2.52
2019-01-27T16:31:17.306Z,2.65
2019-01-27T16:34:02.340Z,2.47
2019-01-27T16:36:31.306Z,3.80
2019-01-27T16:38:59.600Z,4.30
2019-01-27T16:41:27.638Z,2.60
2019-01-27T16:43:55.989Z,3.05
2019-01-27T16:46:24.072Z,3.27
2019-01-27T16:48:52.631Z,2.50
2019-01-27T16:51:21.209Z,3.25
2019-01-27T16:53:49.765Z,2.60
2019-01-27T16:56:18.378Z,4.67
2019-01-27T16:58:46.436Z,4.15
2019-01-27T17:01:14.820Z,3.62
2019-01-27T17:03:43.568Z,12.05
2019-01-27T17:06:11.631Z,3.10
2019-01-27T17:08:39.695Z,2.50
2019-01-27T17:11:10.921Z,2.72
2019-01-27T17:13:38.947Z,3.98
2019-01-27T17:16:07.619Z,3.00
2019-01-27T17:18:36.491Z,3.40
2019-01-27T17:21:04.571Z,2.52
2019-01-27T17:23:33.312Z,2.62
2019-01-27T17:26:01.508Z,3.37
2019-01-27T17:28:30.739Z,4.83
2019-01-27T17:30:58.913Z,3.02
2019-01-27T17:33:27.073Z,2.40
2019-01-27T17:35:55.460Z,2.70
2019-01-27T17:38:26.371Z,3.23
2019-01-27T17:40:55.060Z,3.27
2019-01-27T17:43:23.146Z,2.20
2019-01-27T17:45:51.467Z,3.08
2019-01-27T17:48:19.909Z,3.30
2019-01-27T17:50:48.360Z,3.40
2019-01-27T17:53:16.520Z,2.20
2019-01-27T17:55:45.981Z,2.30
2019-01-27T17:58:33.338Z,19.50
2019-01-27T18:01:29.785Z,3.98
2019-01-27T18:04:19.677Z,3.40
2019-01-27T18:06:55.873Z,2.77
2019-01-27T18:09:43.361Z,2.60
2019-01-27T18:12:33.656Z,3.10
2019-01-27T18:15:01.810Z,2.33
2019-01-27T18:17:29.862Z,2.67
2019-01-27T18:19:58.305Z,2.30
2019-01-27T18:22:26.332Z,42.53
2019-01-27T18:24:54.794Z,4.83
2019-01-27T18:27:22.962Z,2.50
2019-01-27T18:29:51.401Z,2.20
2019-01-27T18:32:19.861Z,2.90
2019-01-27T18:34:48.484Z,4.33
2019-01-27T18:37:17.940Z,2.02
2019-01-27T18:39:45.980Z,3.00
2019-01-27T18:42:14.572Z,2.50
2019-01-27T18:44:42.731Z,1.90
2019-01-27T18:47:10.786Z,2.00
2019-01-27T18:49:39.393Z,2.10
2019-01-27T18:52:07.769Z,2.22
2019-01-27T18:54:56.176Z,2.22
2019-01-27T18:57:43.237Z,2.20
2019-01-27T19:00:31.887Z,1.75
2019-01-27T19:03:21.796Z,4.35
2019-01-27T19:06:07.661Z,2.70
2019-01-27T19:08:57.804Z,2.60
2019-01-27T19:11:49.513Z,1.87
2019-01-27T19:14:32.019Z,3.65
2019-01-27T19:17:12.670Z,2.40
2019-01-27T19:20:02.636Z,2.23
2019-01-27T19:23:01.779Z,4.00
2019-01-27T19:26:07.399Z,3.45
2019-01-27T19:29:10.355Z,2.30
2019-01-27T19:31:45.167Z,2.20
2019-01-27T19:34:22.717Z,2.58
2019-01-27T19:37:10.093Z,3.83
2019-01-27T19:39:55.805Z,3.00
2019-01-27T19:42:37.373Z,3.12
2019-01-27T19:45:19.043Z,3.60
2019-01-27T19:48:12.787Z,3.40
2019-01-27T19:51:16.007Z,3.30
2019-01-27T19:54:06.108Z,3.20
2019-01-27T19:56:51.872Z,3.10
2019-01-27T19:59:44.719Z,4.45
2019-01-27T20:02:30.772Z,3.45
2019-01-27T20:05:07.934Z,4.40
2019-01-27T20:08:01.110Z,4.65
2019-01-27T20:10:54.292Z,5.10
2019-01-27T20:13:40.104Z,4.97
2019-01-27T20:16:27.726Z,5.15
2019-01-27T20:19:24.607Z,4.42
2019-01-27T20:22:08.481Z,6.72
2019-01-27T20:24:58.650Z,5.30
2019-01-27T20:27:48.724Z,5.47
2019-01-27T20:30:38.764Z,6.72
2019-01-27T20:33:32.133Z,5.00
2019-01-27T20:36:18.183Z,5.25
2019-01-27T20:38:57.565Z,5.55
2019-01-27T20:41:51.091Z,5.25
2019-01-27T20:44:44.663Z,6.40
2019-01-27T20:47:20.039Z,5.70
2019-01-27T20:50:19.359Z,5.70
2019-01-27T20:53:20.289Z,6.28
2019-01-27T20:56:10.024Z,6.30
2019-01-27T20:58:50.844Z,6.80
2019-01-27T21:01:27.111Z,7.40
2019-01-27T21:04:05.315Z,6.60
2019-01-27T21:06:52.807Z,5.77
2019-01-27T21:09:38.525Z,6.15
2019-01-27T21:12:19.607Z,6.20
2019-01-27T21:15:09.822Z,6.78
2019-01-27T21:18:01.596Z,7.47
2019-01-27T21:20:29.652Z,6.30
2019-01-27T21:22:58.035Z,6.40
2019-01-27T21:25:26.084Z,6.00
2019-01-27T21:27:56.240Z,6.40
2019-01-27T21:30:25.088Z,6.22
2019-01-27T21:32:55.726Z,6.90
2019-01-27T21:35:23.304Z,6.30
2019-01-27T21:37:51.363Z,7.33
2019-01-27T21:40:20.505Z,6.70
2019-01-27T21:42:49.216Z,6.83
2019-01-27T21:45:17.938Z,7.20
2019-01-27T21:47:45.983Z,7.85
2019-01-27T21:50:15.639Z,9.70
2019-01-27T21:52:43.803Z,8.45
2019-01-27T21:55:11.952Z,9.97
2019-01-27T21:57:41.890Z,9.20
2019-01-27T22:00:11.777Z,11.20
2019-01-27T22:02:40.713Z,9.25
2019-01-27T22:05:09.291Z,9.10
2019-01-27T22:07:38.226Z,9.78
2019-01-27T22:10:06.721Z,9.48
2019-01-27T22:12:34.827Z,10.00
2019-01-27T22:15:02.936Z,10.60
2019-01-27T22:17:32.935Z,10.70
2019-01-27T22:20:03.412Z,12.60
2019-01-27T22:22:31.991Z,11.80
2019-01-27T22:25:00.740Z,13.60
2019-01-27T22:27:28.756Z,11.97
2019-01-27T22:29:57.707Z,13.30
2019-01-27T22:32:26.371Z,13.10
2019-01-27T22:34:55.204Z,13.68
2019-01-27T22:37:23.428Z,12.47
2019-01-27T22:39:52.195Z,13.20
2019-01-27T22:42:20.368Z,14.23
2019-01-27T22:44:49.016Z,13.38
2019-01-27T22:47:17.494Z,13.32
2019-01-27T22:49:45.596Z,14.40
2019-01-27T22:52:13.687Z,13.25
2019-01-27T22:54:43.356Z,15.00
2019-01-27T22:57:12.224Z,15.65
2019-01-27T22:59:41.571Z,16.15
2019-01-27T23:02:09.939Z,14.30
2019-01-27T23:04:38.736Z,18.37
2019-01-27T23:07:06.873Z,18.65
2019-01-27T23:09:35.064Z,16.70
2019-01-27T23:12:03.630Z,16.80
2019-01-27T23:14:32.636Z,17.93
2019-01-27T23:17:00.708Z,17.60
2019-01-27T23:19:28.807Z,16.30
2019-01-27T23:21:56.918Z,14.30
2019-01-27T23:24:25.053Z,16.12
2019-01-27T23:26:53.332Z,18.27
2019-01-27T23:29:21.709Z,13.65
2019-01-27T23:31:49.821Z,13.03
2019-01-27T23:34:18.217Z,12.95
2019-01-27T23:36:46.354Z,15.30
2019-01-27T23:39:14.496Z,13.30
2019-01-27T23:41:42.642Z,14.13
2019-01-27T23:44:11.186Z,11.53
2019-01-27T23:46:39.252Z,11.08
2019-01-27T23:49:08.192Z,15.70
2019-01-27T23:51:36.731Z,13.43
2019-01-27T23:54:05.355Z,16.50
2019-01-27T23:56:34.164Z,12.60
2019-01-27T23:59:02.176Z,13.30
